createdAt,value
2023-01-08T00:01:17.156Z,3.55
2023-01-08T00:03:44.442Z,3.33
2023-01-08T00:06:15.972Z,2.58
2023-01-08T00:08:43.518Z,4.07
2023-01-08T00:11:11.456Z,2.65
2023-01-08T00:13:38.615Z,3.47
2023-01-08T00:16:09.435Z,3.28
2023-01-08T00:18:36.622Z,4.07
2023-01-08T00:21:05.099Z,3.20
2023-01-08T00:23:32.323Z,3.42
2023-01-08T00:26:04.781Z,3.40
2023-01-08T00:28:32.123Z,2.97
2023-01-08T00:31:01.010Z,3.50
2023-01-08T00:33:28.755Z,3.58
2023-01-08T00:35:55.525Z,3.10
2023-01-08T00:38:29.643Z,3.25
2023-01-08T00:40:56.400Z,3.58
2023-01-08T00:43:23.313Z,3.03
2023-01-08T00:45:53.612Z,2.97
2023-01-08T00:48:22.447Z,3.75
2023-01-08T00:50:53.805Z,2.75
2023-01-08T00:53:22.427Z,2.97
2023-01-08T00:55:49.635Z,3.67
2023-01-08T00:58:16.771Z,3.33
2023-01-08T01:00:43.659Z,3.72
2023-01-08T01:03:10.781Z,3.60
2023-01-08T01:05:37.678Z,3.15
2023-01-08T01:08:04.873Z,3.22
2023-01-08T01:10:31.654Z,3.42
2023-01-08T01:12:58.430Z,3.78
2023-01-08T01:15:25.459Z,3.03
2023-01-08T01:17:52.276Z,3.28
2023-01-08T01:20:19.120Z,3.15
2023-01-08T01:22:45.877Z,3.50
2023-01-08T01:25:12.769Z,3.60
2023-01-08T01:27:39.792Z,3.63
2023-01-08T01:30:07.787Z,3.75
2023-01-08T01:32:35.067Z,3.17
2023-01-08T01:35:02.724Z,3.40
2023-01-08T01:37:29.539Z,3.75
2023-01-08T01:39:56.857Z,3.28
2023-01-08T01:42:42.142Z,3.67
2023-01-08T01:45:21.083Z,4.22
2023-01-08T01:47:57.575Z,3.50
2023-01-08T01:50:42.627Z,3.50
2023-01-08T01:53:24.195Z,3.17
2023-01-08T01:55:51.642Z,3.83
2023-01-08T01:58:31.374Z,3.63
2023-01-08T02:01:03.713Z,3.33
2023-01-08T02:03:50.508Z,3.00
2023-01-08T02:06:55.524Z,2.70
2023-01-08T02:09:50.486Z,3.60
2023-01-08T02:12:32.653Z,3.40
2023-01-08T02:15:27.860Z,2.80
2023-01-08T02:18:26.681Z,2.38
2023-01-08T02:20:59.058Z,2.25
2023-01-08T02:23:54.679Z,2.72
2023-01-08T02:26:33.144Z,2.03
2023-01-08T02:29:07.784Z,1.67
2023-01-08T02:31:39.452Z,1.65
2023-01-08T02:34:07.283Z,1.70
2023-01-08T02:36:54.989Z,1.27
2023-01-08T02:39:31.642Z,1.65
2023-01-08T02:42:33.576Z,1.30
2023-01-08T02:45:06.167Z,1.85
2023-01-08T02:47:42.501Z,1.10
2023-01-08T02:50:49.525Z,1.52
2023-01-08T02:53:23.459Z,1.45
2023-01-08T02:55:59.811Z,1.05
2023-01-08T02:58:31.741Z,1.50
2023-01-08T03:01:03.376Z,1.27
2023-01-08T03:03:32.731Z,1.50
2023-01-08T03:06:07.828Z,1.48
2023-01-08T03:08:40.566Z,1.50
2023-01-08T03:11:11.588Z,1.23
2023-01-08T03:13:49.647Z,1.55
2023-01-08T03:16:46.714Z,1.50
2023-01-08T03:19:36.311Z,1.20
2023-01-08T03:22:10.355Z,1.42
2023-01-08T03:24:40.089Z,1.30
2023-01-08T03:27:12.992Z,1.00
2023-01-08T03:29:40.998Z,1.02
2023-01-08T03:32:15.373Z,0.93
2023-01-08T03:34:47.926Z,1.30
2023-01-08T03:37:21.938Z,1.10
2023-01-08T03:40:07.039Z,1.08
2023-01-08T03:42:34.396Z,1.00
2023-01-08T03:45:02.338Z,1.40
2023-01-08T03:47:32.877Z,1.50
2023-01-08T03:50:08.416Z,1.42
2023-01-08T03:52:35.292Z,1.08
2023-01-08T03:55:03.104Z,1.25
2023-01-08T03:57:29.905Z,1.80
2023-01-08T03:59:56.934Z,0.75
2023-01-08T04:02:23.810Z,1.35
2023-01-08T04:04:50.646Z,1.20
2023-01-08T04:07:17.444Z,1.50
2023-01-08T04:09:44.179Z,1.30
2023-01-08T04:12:10.939Z,1.58
2023-01-08T04:14:57.712Z,1.08
2023-01-08T04:17:25.060Z,1.20
2023-01-08T04:19:51.856Z,1.40
2023-01-08T04:22:18.652Z,1.42
2023-01-08T04:24:45.445Z,1.20
2023-01-08T04:27:12.265Z,1.85
2023-01-08T04:29:39.024Z,1.42
2023-01-08T04:32:05.867Z,1.10
2023-01-08T04:34:32.646Z,0.93
2023-01-08T04:36:59.978Z,1.40
2023-01-08T04:39:26.799Z,1.80
2023-01-08T04:41:53.642Z,1.48
2023-01-08T04:44:20.450Z,1.98
2023-01-08T04:46:47.186Z,1.23
2023-01-08T04:49:14.493Z,1.70
2023-01-08T04:51:41.256Z,1.65
2023-01-08T04:54:09.159Z,1.63
2023-01-08T04:56:35.996Z,1.83
2023-01-08T04:59:03.033Z,1.75
2023-01-08T05:01:30.213Z,1.85
2023-01-08T05:04:04.410Z,1.45
2023-01-08T05:06:32.649Z,2.03
2023-01-08T05:08:59.726Z,1.60
2023-01-08T05:11:26.811Z,1.90
2023-01-08T05:13:54.892Z,2.20
2023-01-08T05:16:21.840Z,2.25
2023-01-08T05:18:49.453Z,1.58
2023-01-08T05:21:16.945Z,2.10
2023-01-08T05:23:48.069Z,1.58
2023-01-08T05:26:16.518Z,1.38
2023-01-08T05:28:43.937Z,1.13
2023-01-08T05:31:11.826Z,1.63
2023-01-08T05:33:39.459Z,1.13
2023-01-08T05:36:12.120Z,1.40
2023-01-08T05:38:40.482Z,1.13
2023-01-08T05:41:08.150Z,1.60
2023-01-08T05:43:35.827Z,1.33
2023-01-08T05:46:05.092Z,1.73
2023-01-08T05:48:34.648Z,1.70
2023-01-08T05:51:02.651Z,1.40
2023-01-08T05:53:32.011Z,1.60
2023-01-08T05:56:08.913Z,1.60
2023-01-08T05:58:37.139Z,1.50
2023-01-08T06:01:10.832Z,1.55
2023-01-08T06:03:38.474Z,1.50
2023-01-08T06:06:07.300Z,1.27
2023-01-08T06:08:34.968Z,1.73
2023-01-08T06:11:06.320Z,1.48
2023-01-08T06:13:35.265Z,1.60
2023-01-08T06:16:02.310Z,1.50
2023-01-08T06:18:30.485Z,1.58
2023-01-08T06:20:57.303Z,1.45
2023-01-08T06:23:24.107Z,1.30
2023-01-08T06:25:55.961Z,1.40
2023-01-08T06:28:23.362Z,1.10
2023-01-08T06:30:50.396Z,1.73
2023-01-08T06:33:19.649Z,1.48
2023-01-08T06:35:47.789Z,1.63
2023-01-08T06:38:14.596Z,1.75
2023-01-08T06:40:41.386Z,1.67
2023-01-08T06:43:08.115Z,1.60
2023-01-08T06:45:36.796Z,2.33
2023-01-08T06:48:06.415Z,1.77
2023-01-08T06:50:35.018Z,1.77
2023-01-08T06:53:02.011Z,1.45
2023-01-08T06:55:28.826Z,1.48
2023-01-08T06:57:58.237Z,1.25
2023-01-08T07:00:27.330Z,1.20
2023-01-08T07:02:55.394Z,1.83
2023-01-08T07:05:23.921Z,1.40
2023-01-08T07:07:51.559Z,1.50
2023-01-08T07:10:20.191Z,1.38
2023-01-08T07:12:48.065Z,1.80
2023-01-08T07:15:15.528Z,1.33
2023-01-08T07:17:42.409Z,1.38
2023-01-08T07:20:09.889Z,1.42
2023-01-08T07:22:36.696Z,1.48
2023-01-08T07:25:05.204Z,1.63
2023-01-08T07:27:31.968Z,1.65
2023-01-08T07:29:58.775Z,1.73
2023-01-08T07:32:25.567Z,1.70
2023-01-08T07:34:54.571Z,1.58
2023-01-08T07:37:21.368Z,1.70
2023-01-08T07:39:48.155Z,1.58
2023-01-08T07:42:14.956Z,1.75
2023-01-08T07:44:41.694Z,1.67
2023-01-08T07:47:08.444Z,1.70
2023-01-08T07:49:35.195Z,1.50
2023-01-08T07:52:01.983Z,1.80
2023-01-08T07:54:28.758Z,2.13
2023-01-08T07:56:55.565Z,1.58
2023-01-08T07:59:24.776Z,1.45
2023-01-08T08:01:51.758Z,2.03
2023-01-08T08:04:19.305Z,1.30
2023-01-08T08:06:46.132Z,1.38
2023-01-08T08:09:12.983Z,1.80
2023-01-08T08:11:39.796Z,1.48
2023-01-08T08:14:07.255Z,1.10
2023-01-08T08:16:34.509Z,1.23
2023-01-08T08:19:01.370Z,1.95
2023-01-08T08:21:29.431Z,1.30
2023-01-08T08:23:57.558Z,1.15
2023-01-08T08:26:24.471Z,1.27
2023-01-08T08:28:51.319Z,1.45
2023-01-08T08:31:18.156Z,1.30
2023-01-08T08:33:45.035Z,1.50
2023-01-08T08:36:14.261Z,1.60
2023-01-08T08:38:41.119Z,1.58
2023-01-08T08:41:07.957Z,1.20
2023-01-08T08:43:34.791Z,1.55
2023-01-08T08:46:02.485Z,1.40
2023-01-08T08:48:29.317Z,1.58
2023-01-08T08:50:56.133Z,1.77
2023-01-08T08:53:22.930Z,1.80
2023-01-08T08:55:49.718Z,1.35
2023-01-08T08:58:16.515Z,1.50
2023-01-08T09:00:43.896Z,1.30
2023-01-08T09:03:15.387Z,1.67
2023-01-08T09:05:45.682Z,1.50
2023-01-08T09:08:13.088Z,1.55
2023-01-08T09:10:42.328Z,1.33
2023-01-08T09:13:09.943Z,1.58
2023-01-08T09:15:38.187Z,2.70
2023-01-08T09:18:05.874Z,1.40
2023-01-08T09:20:32.828Z,1.20
2023-01-08T09:23:01.240Z,1.83
2023-01-08T09:25:28.623Z,1.70
2023-01-08T09:28:09.834Z,1.73
2023-01-08T09:30:36.609Z,2.05
2023-01-08T09:33:04.683Z,1.55
2023-01-08T09:35:34.751Z,1.77
2023-01-08T09:38:01.612Z,1.98
2023-01-08T09:40:54.591Z,1.95
2023-01-08T09:43:24.891Z,2.00
2023-01-08T09:46:00.921Z,1.98
2023-01-08T09:48:34.685Z,1.55
2023-01-08T09:51:02.059Z,1.75
2023-01-08T09:53:29.575Z,2.28
2023-01-08T09:56:11.323Z,1.73
2023-01-08T09:58:51.029Z,2.15
2023-01-08T10:01:22.812Z,2.60
2023-01-08T10:04:05.751Z,2.20
2023-01-08T10:06:33.571Z,2.17
2023-01-08T10:09:00.674Z,1.90
2023-01-08T10:11:39.903Z,1.95
2023-01-08T10:14:21.773Z,2.35
2023-01-08T10:16:58.216Z,1.70
2023-01-08T10:19:25.008Z,2.15
2023-01-08T10:21:53.281Z,1.88
2023-01-08T10:24:40.301Z,1.90
2023-01-08T10:27:13.627Z,2.30
2023-01-08T10:29:40.622Z,2.50
2023-01-08T10:32:16.805Z,1.98
2023-01-08T10:34:53.728Z,2.17
2023-01-08T10:37:31.811Z,1.65
2023-01-08T10:40:35.543Z,2.38
2023-01-08T10:43:16.133Z,1.58
2023-01-08T10:45:54.760Z,2.50
2023-01-08T10:48:21.890Z,1.70
2023-01-08T10:50:48.790Z,1.30
2023-01-08T10:53:34.536Z,1.52
2023-01-08T10:56:04.911Z,1.83
2023-01-08T10:58:42.634Z,1.98
2023-01-08T11:01:21.574Z,1.73
2023-01-08T11:03:56.866Z,1.70
2023-01-08T11:06:31.600Z,1.50
2023-01-08T11:09:14.153Z,1.40
2023-01-08T11:11:40.947Z,1.20
2023-01-08T11:14:30.311Z,1.20
2023-01-08T11:16:59.205Z,1.00
2023-01-08T11:19:30.156Z,1.38
2023-01-08T11:22:01.460Z,1.05
2023-01-08T11:24:34.656Z,1.20
2023-01-08T11:27:11.613Z,1.00
2023-01-08T11:29:49.940Z,0.77
2023-01-08T11:32:28.359Z,1.20
2023-01-08T11:35:20.391Z,0.90
2023-01-08T11:38:00.014Z,1.23
2023-01-08T11:40:51.093Z,1.02
2023-01-08T11:46:24.353Z,1.00
2023-01-08T11:49:23.244Z,0.90
2023-01-08T11:52:09.692Z,0.88
2023-01-08T11:55:20.277Z,0.73
2023-01-08T11:58:22.815Z,0.52
2023-01-08T12:00:58.662Z,0.82
2023-01-08T12:03:43.102Z,0.80
2023-01-08T12:06:23.230Z,1.17
2023-01-08T12:09:14.935Z,0.85
2023-01-08T12:12:15.141Z,1.15
2023-01-08T12:15:02.918Z,1.10
2023-01-08T12:17:51.111Z,1.00
2023-01-08T12:20:58.679Z,1.08
2023-01-08T12:24:18.858Z,1.42
2023-01-08T12:26:55.649Z,0.90
2023-01-08T12:30:04.116Z,1.38
2023-01-08T12:32:38.346Z,1.10
2023-01-08T12:35:32.106Z,1.60
2023-01-08T12:38:21.171Z,1.48
2023-01-08T12:41:00.493Z,1.20
2023-01-08T12:44:05.392Z,1.25
2023-01-08T12:46:36.231Z,1.60
2023-01-08T12:49:07.483Z,1.50
2023-01-08T12:51:50.062Z,1.85
2023-01-08T12:54:31.893Z,1.40
2023-01-08T12:57:25.542Z,1.13
2023-01-08T13:00:22.698Z,0.95
2023-01-08T13:03:05.964Z,1.60
2023-01-08T13:05:38.239Z,2.10
2023-01-08T13:10:53.771Z,1.65
2023-01-08T13:13:45.100Z,1.77
2023-01-08T13:16:11.894Z,2.33
2023-01-08T13:18:39.128Z,1.80
2023-01-08T13:21:11.755Z,1.55
2023-01-08T13:23:38.857Z,1.20
2023-01-08T13:26:07.550Z,1.80
2023-01-08T13:28:37.340Z,1.55
2023-01-08T13:31:28.738Z,1.10
2023-01-08T13:33:56.161Z,1.33
2023-01-08T13:36:28.952Z,1.25
2023-01-08T13:39:10.725Z,1.55
2023-01-08T13:41:46.093Z,1.50
2023-01-08T13:44:30.068Z,1.50
2023-01-08T13:47:04.471Z,1.67
2023-01-08T13:49:51.657Z,1.20
2023-01-08T13:52:38.636Z,1.02
2023-01-08T13:55:16.283Z,1.25
2023-01-08T13:57:52.469Z,1.55
2023-01-08T14:00:42.275Z,1.30
2023-01-08T14:03:29.965Z,1.60
2023-01-08T14:06:22.732Z,2.05
2023-01-08T14:09:02.113Z,1.52
2023-01-08T14:11:47.063Z,1.63
2023-01-08T14:14:18.013Z,1.37
2023-01-08T14:16:47.568Z,1.40
2023-01-08T14:19:21.461Z,1.80
2023-01-08T14:21:51.521Z,2.28
2023-01-08T14:24:21.216Z,1.65
2023-01-08T14:27:06.019Z,1.35
2023-01-08T14:29:36.571Z,1.30
2023-01-08T14:32:03.391Z,1.60
2023-01-08T14:34:32.349Z,1.25
2023-01-08T14:36:59.203Z,1.60
2023-01-08T14:39:39.051Z,1.02
2023-01-08T14:42:37.436Z,1.38
2023-01-08T14:45:16.377Z,1.75
2023-01-08T14:47:46.501Z,1.70
2023-01-08T14:50:31.901Z,1.30
2023-01-08T14:53:09.721Z,1.35
2023-01-08T14:55:44.793Z,1.67
2023-01-08T14:58:22.292Z,1.40
2023-01-08T15:01:17.437Z,1.40
2023-01-08T15:03:47.816Z,1.10
2023-01-08T15:06:31.408Z,1.20
2023-01-08T15:09:00.565Z,1.40
2023-01-08T15:11:31.861Z,1.30
2023-01-08T15:14:00.562Z,1.38
2023-01-08T15:16:38.917Z,1.40
2023-01-08T15:19:14.388Z,1.45
2023-01-08T15:21:53.417Z,1.70
2023-01-08T15:24:36.677Z,1.70
2023-01-08T15:27:10.097Z,2.05
2023-01-08T15:29:50.708Z,1.13
2023-01-08T15:32:17.393Z,1.98
2023-01-08T15:34:46.257Z,1.25
2023-01-08T15:37:15.195Z,1.52
2023-01-08T15:39:43.164Z,1.83
2023-01-08T15:42:48.695Z,2.13
2023-01-08T15:45:19.858Z,1.95
2023-01-08T15:47:47.170Z,2.20
2023-01-08T15:50:14.715Z,1.63
2023-01-08T15:52:43.846Z,1.55
2023-01-08T15:55:19.656Z,2.08
2023-01-08T15:57:46.669Z,1.83
2023-01-08T16:00:16.448Z,2.20
2023-01-08T16:02:47.532Z,1.90
2023-01-08T16:05:17.584Z,1.85
2023-01-08T16:07:46.196Z,2.42
2023-01-08T16:10:14.974Z,1.70
2023-01-08T16:12:43.450Z,2.17
2023-01-08T16:15:11.728Z,2.05
2023-01-08T16:17:38.570Z,2.10
2023-01-08T16:20:07.531Z,2.10
2023-01-08T16:22:34.707Z,1.77
2023-01-08T16:25:02.046Z,1.58
2023-01-08T16:27:31.525Z,1.65
2023-01-08T16:29:58.676Z,2.10
2023-01-08T16:32:25.601Z,2.05
2023-01-08T16:34:54.341Z,2.20
2023-01-08T16:37:22.226Z,2.22
2023-01-08T16:39:49.532Z,2.30
2023-01-08T16:42:16.339Z,2.03
2023-01-08T16:44:43.243Z,2.25
2023-01-08T16:47:10.942Z,1.92
2023-01-08T16:49:37.819Z,1.70
2023-01-08T16:52:04.880Z,2.00
2023-01-08T16:54:33.046Z,1.95
2023-01-08T16:56:59.857Z,2.13
2023-01-08T16:59:27.252Z,2.33
2023-01-08T17:01:54.772Z,1.92
2023-01-08T17:04:21.727Z,1.80
2023-01-08T17:06:48.684Z,2.42
2023-01-08T17:09:15.526Z,2.45
2023-01-08T17:11:42.868Z,2.55
2023-01-08T17:14:10.301Z,2.10
2023-01-08T17:16:37.500Z,2.30
2023-01-08T17:19:04.862Z,2.38
2023-01-08T17:21:33.651Z,2.40
2023-01-08T17:24:00.502Z,2.47
2023-01-08T17:26:27.491Z,2.63
2023-01-08T17:28:55.088Z,2.13
2023-01-08T17:31:22.079Z,1.88
2023-01-08T17:33:50.449Z,2.67
2023-01-08T17:36:24.101Z,3.00
2023-01-08T17:38:53.722Z,2.67
2023-01-08T17:41:40.874Z,2.20
2023-01-08T17:44:12.547Z,2.15
2023-01-08T17:46:43.758Z,1.90
2023-01-08T17:49:14.071Z,3.60
2023-01-08T17:51:43.233Z,2.33
2023-01-08T17:54:16.133Z,3.33
2023-01-08T17:56:44.079Z,2.83
2023-01-08T17:59:16.673Z,3.10
2023-01-08T18:01:45.353Z,2.72
2023-01-08T18:04:13.410Z,2.40
2023-01-08T18:06:41.343Z,2.67
2023-01-08T18:09:10.019Z,4.03
2023-01-08T18:11:37.091Z,2.90
2023-01-08T18:14:04.565Z,3.50
2023-01-08T18:16:32.735Z,3.90
2023-01-08T18:19:00.767Z,4.75
2023-01-08T18:21:28.462Z,4.03
2023-01-08T18:23:55.706Z,3.30
2023-01-08T18:26:23.244Z,2.33
2023-01-08T18:29:10.042Z,2.92
2023-01-08T18:34:39.251Z,2.83
2023-01-08T18:37:26.792Z,2.28
2023-01-08T18:40:13.627Z,2.45
2023-01-08T18:43:00.440Z,2.15
2023-01-08T18:45:39.555Z,2.40
2023-01-08T18:48:09.429Z,1.95
2023-01-08T18:50:55.347Z,1.90
2023-01-08T18:53:23.625Z,2.42
2023-01-08T18:55:50.549Z,2.40
2023-01-08T18:58:17.415Z,2.72
2023-01-08T19:00:44.239Z,2.67
2023-01-08T19:03:12.327Z,2.15
2023-01-08T19:08:42.320Z,2.17
2023-01-08T19:11:12.317Z,2.10
2023-01-08T19:13:39.952Z,2.70
2023-01-08T19:16:11.092Z,2.00
2023-01-08T19:18:38.780Z,2.10
2023-01-08T19:21:13.963Z,2.00
2023-01-08T19:23:41.443Z,2.20
2023-01-08T19:26:09.141Z,1.58
2023-01-08T19:28:36.751Z,1.58
2023-01-08T19:31:04.009Z,1.98
2023-01-08T19:33:31.112Z,1.60
2023-01-08T19:36:08.608Z,1.67
2023-01-08T19:38:35.591Z,2.30
2023-01-08T19:41:03.279Z,2.30
2023-01-08T19:43:42.596Z,2.15
2023-01-08T19:46:15.392Z,2.10
2023-01-08T19:48:43.997Z,2.03
2023-01-08T19:51:12.775Z,2.17
2023-01-08T19:53:40.171Z,2.10
2023-01-08T19:56:13.492Z,2.42
2023-01-08T19:58:41.126Z,2.10
2023-01-08T20:01:15.617Z,2.20
2023-01-08T20:03:43.914Z,2.13
2023-01-08T20:06:19.636Z,2.40
2023-01-08T20:08:48.512Z,2.30
2023-01-08T20:11:17.544Z,2.33
2023-01-08T20:13:45.411Z,2.20
2023-01-08T20:16:17.364Z,2.55
2023-01-08T20:18:45.206Z,2.10
2023-01-08T20:21:21.902Z,1.83
2023-01-08T20:23:53.322Z,2.30
2023-01-08T20:26:20.605Z,2.38
2023-01-08T20:28:47.581Z,2.40
2023-01-08T20:31:18.372Z,1.88
2023-01-08T20:33:46.227Z,1.77
2023-01-08T20:36:20.914Z,2.17
2023-01-08T20:38:52.768Z,2.13
2023-01-08T20:41:20.658Z,2.05
2023-01-08T20:43:48.654Z,1.80
2023-01-08T20:46:16.309Z,2.30
2023-01-08T20:48:47.742Z,1.90
2023-01-08T20:51:16.493Z,2.30
2023-01-08T20:53:43.385Z,1.80
2023-01-08T20:56:14.871Z,1.95
2023-01-08T20:58:45.918Z,2.00
2023-01-08T21:01:22.600Z,1.95
2023-01-08T21:03:55.173Z,2.10
2023-01-08T21:06:26.290Z,2.00
2023-01-08T21:08:59.316Z,1.67
2023-01-08T21:11:27.801Z,1.92
2023-01-08T21:13:55.658Z,1.85
2023-01-08T21:16:28.758Z,1.80
2023-01-08T21:18:56.229Z,1.92
2023-01-08T21:21:33.494Z,1.85
2023-01-08T21:24:04.635Z,1.83
2023-01-08T21:26:33.938Z,2.30
2023-01-08T21:29:06.470Z,1.70
2023-01-08T21:31:34.120Z,1.52
2023-01-08T21:34:03.194Z,2.00
2023-01-08T21:36:32.119Z,1.98
2023-01-08T21:39:01.399Z,1.85
2023-01-08T21:41:48.776Z,1.80
2023-01-08T21:44:41.021Z,1.80
2023-01-08T21:47:16.515Z,1.17
2023-01-08T21:49:45.532Z,2.97
2023-01-08T21:52:31.056Z,1.70
2023-01-08T21:54:58.314Z,1.52
2023-01-08T21:57:27.901Z,1.80
2023-01-08T21:59:55.980Z,2.30
2023-01-08T22:02:25.013Z,2.08
2023-01-08T22:04:55.979Z,1.83
2023-01-08T22:07:24.157Z,2.03
2023-01-08T22:09:51.044Z,1.90
2023-01-08T22:12:17.883Z,1.77
2023-01-08T22:14:44.808Z,2.03
2023-01-08T22:17:12.277Z,2.28
2023-01-08T22:19:40.214Z,1.92
2023-01-08T22:22:10.449Z,2.38
2023-01-08T22:24:39.602Z,1.95
2023-01-08T22:27:10.073Z,2.00
2023-01-08T22:29:37.670Z,2.15
2023-01-08T22:32:05.717Z,2.03
2023-01-08T22:34:34.942Z,2.10
2023-01-08T22:37:02.409Z,2.85
2023-01-08T22:39:29.431Z,2.50
2023-01-08T22:41:56.521Z,2.10
2023-01-08T22:44:23.389Z,2.15
2023-01-08T22:46:50.185Z,2.25
2023-01-08T22:49:17.060Z,2.10
2023-01-08T22:51:44.360Z,2.55
2023-01-08T22:54:17.130Z,2.22
2023-01-08T22:56:43.986Z,1.98
2023-01-08T22:59:11.629Z,2.40
2023-01-08T23:01:38.466Z,2.00
2023-01-08T23:04:05.468Z,1.73
2023-01-08T23:06:34.300Z,1.35
2023-01-08T23:09:01.512Z,0.80
2023-01-08T23:11:28.682Z,1.23
2023-01-08T23:13:56.180Z,1.00
2023-01-08T23:16:25.551Z,1.00
2023-01-08T23:18:56.082Z,0.80
2023-01-08T23:21:27.222Z,0.73
2023-01-08T23:23:54.235Z,1.00
2023-01-08T23:26:27.932Z,0.80
2023-01-08T23:28:57.458Z,1.00
2023-01-08T23:31:28.023Z,1.17
2023-01-08T23:33:55.600Z,1.10
2023-01-08T23:36:23.063Z,0.85
2023-01-08T23:38:53.893Z,0.77
2023-01-08T23:41:30.968Z,0.73
2023-01-08T23:44:08.737Z,1.10
2023-01-08T23:46:35.891Z,0.88
2023-01-08T23:49:04.611Z,1.13
2023-01-08T23:51:31.419Z,1.10
2023-01-08T23:53:58.355Z,1.02
2023-01-08T23:56:25.610Z,1.10
2023-01-08T23:58:53.911Z,0.82
